Terminal Aerodrome Forecast
Issued by NWS

Home | Current Version | Previous Version | Text Only | Print | Product List | Glossary On
Versions: 1 2 3 4 5 6 7 8 9 10 11 12 13 14 15 16 17 18 19
561
FTUS44 KMAF 191505 AAA
TAFINK
TAF AMD
KINK 191505Z 1915/2012 26021KT P6SM SKC
     FM191800 27025G35KT P6SM FEW250
     FM200000 25013KT P6SM BKN200=

USA.gov is the U.S. government's official web portal to all federal, state and local government web resources and services.